Valentine, NE

6:01 AM CST on March 01, 2015 (GMT -0600)
Valentine Ne. | Change Station
CLOSE
Current Station
Personal Weather Station
Location: Valentine, NE
Elevation: 2585 ft
Nearby Weather Stations

Elev 2585 ft 42.88 °N, 100.56 °W | Updated 8 seconds ago

Overcast
Overcast
16.7 °F
Feels Like 17 °F
N
2.0
Wind Variable Wind from WNW
Gusts 7.0 mph

Today
High -- | Low -- °F
--% Chance of Precip.
Yesterday
High -- | Low -- °F
Precip. -- in
7:18 AM 6:31 PM
Waxing Gibbous, 84% visible
Pressure 30.35 in
Visibility 10.0 miles
Clouds Overcast 6500 ft
Windchill 17 °F
Dew Point 12 °F
Humidity 80%
Rainfall 0.00 in
Snow Depth Not available.
UV 0 out of 12
Pollen .40 out of 12
Air Quality Not available.
Flu Activity Not available.
METAR KVTN 011052Z AUTO 28003KT 10SM OVC065 M08/M13 A3024 RMK AO2 SLP275 T10781128

More Conditions Fewer Conditions

Pressure 30.35 in
Visibility 10.0 miles
Clouds Overcast 6500 ft
Windchill 17 °F
Dew Point 12 °F
Humidity 80%
Rainfall 0.00 in
Snow Depth Not available.
UV 0 out of 12
Pollen .40 out of 12
Air Quality Not available.
Flu Activity Not available.
METAR KVTN 011052Z AUTO 28003KT 10SM OVC065 M08/M13 A3024 RMK AO2 SLP275 T10781128

More Conditions Fewer Conditions

10-Day Weather Forecast

Almanac

Astronomy

Mar. 01, 2015 Rise Set
Actual Time
Civil Twilight
Nautical Twilight
Astronomical Twilight
Moon
Length of Visible Light
Length of Day
Tomorrow will be .
, % of the Moon is Illuminated

Today's Extremes

State Highs State Lows

Community

WunderPhotos

Upload Photos

1,801,362 photos uploaded!

WunderBlogs® & News

Nearby

Air Quality

  Air Quality AQ Index Pollutant
Not available.

Snow Depth

Station Depth Elevation

Earthquake Activity

City Distance Mag. Time & Date
Minimum magnitude displayed is 2.5.

Coastal Water Temperatures

Place Temperature

Nearby Weather Stations